Time;durP1;ratioP1;P1;durP2;ratioP2;P2;SDS_P1;SDS_P2;PMS_P1;PMS_P2;Temp;Humidity;BMP_temperature;BMP_pressure;BME280_temperature;BME280_humidity;BME280_pressure;Samples;Min_cycle;Max_cycle;Signal;HPM_P1;HPM_P2
2023/08/24 00:00:58;;;;;;;7.97;4.30;;;14.30;99.90;;;;;;5052255;28;20128;-72
2023/08/24 00:03:23;;;;;;;8.98;4.10;;;14.30;99.90;;;;;;5052585;28;20126;-72
2023/08/24 00:05:49;;;;;;;7.35;4.00;;;14.30;99.90;;;;;;5052239;28;20391;-72
2023/08/24 00:08:15;;;;;;;6.95;4.35;;;14.30;99.90;;;;;;5052354;28;20053;-72
2023/08/24 00:10:43;;;;;;;8.93;4.30;;;14.20;99.90;;;;;;5052097;28;20042;-72
2023/08/24 00:13:09;;;;;;;10.52;4.22;;;14.20;99.90;;;;;;5052414;28;20037;-72
2023/08/24 00:15:36;;;;;;;6.35;4.22;;;14.20;99.90;;;;;;5052092;28;20049;-72
2023/08/24 00:18:02;;;;;;;7.32;3.90;;;14.20;99.90;;;;;;5052165;28;20056;-72
2023/08/24 00:20:27;;;;;;;7.75;4.97;;;14.20;99.90;;;;;;5053412;28;20037;-72
2023/08/24 00:22:53;;;;;;;9.75;4.85;;;14.20;99.90;;;;;;5053405;28;20045;-72
2023/08/24 00:25:19;;;;;;;8.52;4.40;;;14.20;99.90;;;;;;5052203;28;20107;-71
2023/08/24 00:27:44;;;;;;;8.10;4.03;;;14.20;99.90;;;;;;5056438;28;20045;-72
2023/08/24 00:30:10;;;;;;;6.78;3.60;;;14.20;99.90;;;;;;5057312;28;20037;-72
2023/08/24 00:32:36;;;;;;;6.10;3.75;;;14.20;99.90;;;;;;5056234;28;20053;-72
2023/08/24 00:35:04;;;;;;;9.20;3.67;;;14.20;99.90;;;;;;5057203;28;20399;-72
2023/08/24 00:37:30;;;;;;;7.43;3.42;;;14.20;99.90;;;;;;5056973;28;20045;-72
2023/08/24 00:39:56;;;;;;;8.00;4.90;;;14.20;99.90;;;;;;5055997;28;20127;-72
2023/08/24 00:42:22;;;;;;;10.48;6.00;;;14.20;99.90;;;;;;5055751;28;20124;-72
2023/08/24 00:44:48;;;;;;;10.10;6.07;;;14.20;99.90;;;;;;5055773;28;20045;-72
2023/08/24 00:47:15;;;;;;;9.23;4.95;;;14.30;99.90;;;;;;5055906;28;20052;-72
2023/08/24 00:49:42;;;;;;;9.77;5.63;;;14.30;99.90;;;;;;5055181;28;20056;-72
2023/08/24 00:52:08;;;;;;;8.10;5.18;;;14.30;99.90;;;;;;5055452;28;20106;-72
2023/08/24 00:54:35;;;;;;;9.77;4.82;;;14.40;99.90;;;;;;5055751;28;20071;-72
2023/08/24 00:57:00;;;;;;;7.75;4.93;;;14.40;99.90;;;;;;5055452;28;20389;-71
2023/08/24 00:59:26;;;;;;;8.38;5.25;;;14.40;99.90;;;;;;5055584;28;20557;-72
2023/08/24 01:01:52;;;;;;;9.43;5.20;;;14.40;99.90;;;;;;5055735;28;20084;-71
2023/08/24 01:04:18;;;;;;;7.97;5.38;;;14.40;99.90;;;;;;5055410;28;20102;-71
2023/08/24 01:06:44;;;;;;;10.98;5.38;;;14.40;99.90;;;;;;5055499;28;20088;-72
2023/08/24 01:09:10;;;;;;;11.75;5.88;;;14.50;99.90;;;;;;5055151;28;20524;-72
2023/08/24 01:11:54;;;;;;;9.15;6.55;;;14.40;99.90;;;;;;5055398;28;20045;-71
2023/08/24 01:14:37;;;;;;;11.02;6.35;;;14.50;99.90;;;;;;5056550;28;20047;-71
2023/08/24 01:17:05;;;;;;;11.20;6.70;;;14.50;99.90;;;;;;5055002;28;20098;-72
2023/08/24 01:19:39;;;;;;;9.23;5.60;;;14.50;99.90;;;;;;5054870;28;20480;-72
2023/08/24 01:22:30;;;;;;;8.68;5.57;;;14.50;99.90;;;;;;5055104;28;20056;-71
2023/08/24 01:25:23;;;;;;;11.43;6.32;;;14.50;99.90;;;;;;5009427;28;20140;-72
2023/08/24 01:27:51;;;;;;;10.40;6.03;;;14.60;99.90;;;;;;5054949;28;20068;-72
2023/08/24 01:30:19;;;;;;;10.05;5.80;;;14.50;99.90;;;;;;5054767;28;20085;-72
2023/08/24 01:32:45;;;;;;;11.00;6.68;;;14.50;99.90;;;;;;5055111;28;20057;-72
2023/08/24 01:35:11;;;;;;;11.10;6.50;;;14.50;99.90;;;;;;5054881;28;20051;-72
2023/08/24 01:37:37;;;;;;;9.15;5.88;;;14.50;99.90;;;;;;5053945;28;20108;-72
2023/08/24 01:40:11;;;;;;;8.68;5.43;;;14.50;99.90;;;;;;5055730;28;20049;-72
2023/08/24 01:42:42;;;;;;;9.05;5.85;;;14.60;99.90;;;;;;5054697;28;20132;-71
2023/08/24 01:45:09;;;;;;;11.43;6.82;;;14.50;99.90;;;;;;5054920;28;20037;-72
2023/08/24 01:47:37;;;;;;;10.48;7.60;;;14.50;99.90;;;;;;5055866;28;20084;-72
2023/08/24 01:50:05;;;;;;;11.57;7.32;;;14.50;99.90;;;;;;5054382;28;20514;-72
2023/08/24 01:52:32;;;;;;;12.52;7.35;;;14.60;99.90;;;;;;5054358;28;20056;-72
2023/08/24 01:54:58;;;;;;;11.80;7.30;;;14.50;99.90;;;;;;5054338;28;20040;-72
2023/08/24 01:57:23;;;;;;;12.25;8.07;;;14.60;99.90;;;;;;5054368;28;20060;-72
2023/08/24 01:59:49;;;;;;;12.70;8.20;;;14.60;99.90;;;;;;5054308;28;20369;-72
2023/08/24 02:02:14;;;;;;;13.52;7.97;;;14.60;99.90;;;;;;5054592;28;20049;-72
2023/08/24 02:04:40;;;;;;;11.68;7.82;;;14.60;99.90;;;;;;5054317;28;20411;-72
2023/08/24 02:07:06;;;;;;;13.02;7.75;;;14.60;99.90;;;;;;5054068;28;20051;-72
2023/08/24 02:09:31;;;;;;;13.27;8.07;;;14.60;99.90;;;;;;5054310;28;20049;-71
2023/08/24 02:11:57;;;;;;;12.52;8.05;;;14.60;99.90;;;;;;5054124;28;20052;-72
2023/08/24 02:14:23;;;;;;;13.93;7.85;;;14.60;99.90;;;;;;5054215;28;20072;-71
2023/08/24 02:16:48;;;;;;;9.70;6.85;;;14.60;99.90;;;;;;5053987;28;20541;-72
2023/08/24 02:19:14;;;;;;;12.77;7.78;;;14.60;99.90;;;;;;5053994;28;20053;-71
2023/08/24 02:21:40;;;;;;;14.55;7.85;;;14.60;99.90;;;;;;5053793;28;20045;-72
2023/08/24 02:24:06;;;;;;;14.27;8.05;;;14.70;99.90;;;;;;5054030;28;20052;-71
2023/08/24 02:26:31;;;;;;;13.48;7.68;;;14.70;99.90;;;;;;5055181;28;20053;-72
2023/08/24 02:28:57;;;;;;;12.10;7.00;;;14.70;99.90;;;;;;5053747;28;20468;-72
2023/08/24 02:31:23;;;;;;;11.93;7.45;;;14.70;99.90;;;;;;5053810;28;20060;-71
2023/08/24 02:33:54;;;;;;;14.00;8.25;;;14.70;99.90;;;;;;5054744;28;20033;-72
2023/08/24 02:36:20;;;;;;;11.43;7.00;;;14.80;99.90;;;;;;5053765;28;20099;-71
2023/08/24 02:38:46;;;;;;;10.80;6.97;;;14.80;99.90;;;;;;5053619;28;20076;-72
2023/08/24 02:41:14;;;;;;;12.73;6.80;;;14.80;99.90;;;;;;5054942;28;20045;-72
2023/08/24 02:43:40;;;;;;;13.88;8.50;;;14.80;99.90;;;;;;5054899;28;20045;-72
2023/08/24 02:46:08;;;;;;;14.25;7.93;;;14.80;99.90;;;;;;5053814;28;20053;-72
2023/08/24 02:48:35;;;;;;;15.95;8.30;;;14.80;99.90;;;;;;5054629;28;20053;-72
2023/08/24 02:51:03;;;;;;;14.02;8.30;;;14.80;99.90;;;;;;5052934;28;20419;-72
2023/08/24 02:53:29;;;;;;;12.25;8.45;;;14.80;99.90;;;;;;5053663;28;20045;-72
2023/08/24 02:55:58;;;;;;;13.98;8.45;;;14.80;99.90;;;;;;5053298;28;20128;-71
2023/08/24 02:58:24;;;;;;;13.68;7.70;;;14.80;99.90;;;;;;5053752;28;20480;-72
2023/08/24 03:00:49;;;;;;;13.55;8.20;;;14.80;99.90;;;;;;5053169;28;20056;-71
2023/08/24 03:03:15;;;;;;;16.60;8.48;;;14.90;99.90;;;;;;5053033;28;20060;-72
2023/08/24 03:05:50;;;;;;;14.88;8.65;;;14.80;99.90;;;;;;5053010;28;20041;-72
2023/08/24 03:08:16;;;;;;;13.88;9.02;;;14.90;99.90;;;;;;5053290;28;20508;-72
2023/08/24 03:10:42;;;;;;;16.63;8.30;;;14.90;99.90;;;;;;5053204;28;20077;-72
2023/08/24 03:13:07;;;;;;;13.32;8.52;;;14.90;99.90;;;;;;5053023;28;20482;-71
2023/08/24 03:15:35;;;;;;;13.60;8.85;;;14.90;99.90;;;;;;5053134;28;20130;-71
2023/08/24 03:18:01;;;;;;;14.40;8.05;;;14.80;99.90;;;;;;5052724;28;20483;-71
2023/08/24 03:20:26;;;;;;;11.40;7.32;;;14.80;99.90;;;;;;5054179;28;20163;-71
2023/08/24 03:22:52;;;;;;;13.80;7.35;;;14.80;99.90;;;;;;5054129;28;20391;-71
2023/08/24 03:25:17;;;;;;;12.05;7.75;;;14.80;99.90;;;;;;5052737;28;20106;-71
2023/08/24 03:27:43;;;;;;;10.85;7.68;;;14.80;99.90;;;;;;5052788;28;20134;-72
2023/08/24 03:30:09;;;;;;;11.68;7.20;;;14.80;99.90;;;;;;5052978;28;20092;-71
2023/08/24 03:32:35;;;;;;;13.38;7.03;;;14.80;99.90;;;;;;5053993;28;20043;-71
2023/08/24 03:35:01;;;;;;;13.43;6.93;;;14.80;99.90;;;;;;5053755;28;20462;-72
2023/08/24 03:37:27;;;;;;;14.25;7.30;;;14.80;99.90;;;;;;5052492;28;20049;-72
2023/08/24 03:39:53;;;;;;;14.10;7.68;;;14.80;99.90;;;;;;5052393;28;20071;-72
2023/08/24 03:42:18;;;;;;;13.68;7.47;;;14.80;99.90;;;;;;5052583;28;20045;-72
2023/08/24 03:44:44;;;;;;;13.50;7.53;;;14.80;99.90;;;;;;5052299;28;20141;-71
2023/08/24 03:47:10;;;;;;;11.50;7.43;;;14.80;99.90;;;;;;5053564;28;20124;-71
2023/08/24 03:49:35;;;;;;;16.80;8.23;;;14.80;99.90;;;;;;5053427;28;20061;-71
2023/08/24 03:52:01;;;;;;;11.77;7.40;;;14.80;99.90;;;;;;5053636;28;20045;-72
2023/08/24 03:54:28;;;;;;;13.10;7.88;;;14.90;99.90;;;;;;5053448;28;20053;-71
2023/08/24 03:56:53;;;;;;;9.68;7.13;;;14.90;99.90;;;;;;5052278;28;20045;-72
2023/08/24 03:59:19;;;;;;;12.52;7.60;;;14.80;99.90;;;;;;5053273;28;20051;-71
2023/08/24 04:01:44;;;;;;;10.02;6.53;;;14.80;99.90;;;;;;5051490;28;20053;-72
2023/08/24 04:04:10;;;;;;;13.70;7.40;;;14.80;99.90;;;;;;5052223;28;20056;-71
2023/08/24 04:06:36;;;;;;;12.02;7.95;;;14.80;99.90;;;;;;5053644;28;20041;-72
2023/08/24 04:09:01;;;;;;;12.85;7.75;;;14.80;99.90;;;;;;5053315;28;20048;-71
2023/08/24 04:11:27;;;;;;;12.90;7.75;;;14.80;99.90;;;;;;5052249;28;20049;-72
2023/08/24 04:13:53;;;;;;;12.02;7.88;;;14.80;99.90;;;;;;5052291;28;20143;-72
2023/08/24 04:16:18;;;;;;;13.80;9.05;;;14.80;99.90;;;;;;5053304;28;20033;-71
2023/08/24 04:18:44;;;;;;;11.20;7.53;;;14.80;99.90;;;;;;5051999;28;20392;-71
2023/08/24 04:21:09;;;;;;;12.77;7.57;;;14.80;99.90;;;;;;5051880;28;20139;-71
2023/08/24 04:23:35;;;;;;;11.68;7.47;;;14.80;99.90;;;;;;5052968;28;20115;-71
2023/08/24 04:26:01;;;;;;;11.45;8.30;;;14.80;99.90;;;;;;5051167;28;20128;-71
2023/08/24 04:28:26;;;;;;;12.65;8.23;;;14.70;99.90;;;;;;5051405;28;20048;-71
2023/08/24 04:30:57;;;;;;;14.40;8.55;;;14.70;99.90;;;;;;5053269;28;20044;-71
2023/08/24 04:33:22;;;;;;;14.23;8.95;;;14.60;99.90;;;;;;5052011;28;20128;-71
2023/08/24 04:35:51;;;;;;;14.57;9.02;;;14.70;99.90;;;;;;5051663;28;20131;-72
2023/08/24 04:38:17;;;;;;;13.57;8.70;;;14.70;99.90;;;;;;5051943;28;20049;-71
2023/08/24 04:40:54;;;;;;;16.02;10.30;;;14.60;99.90;;;;;;5051612;28;20118;-72
2023/08/24 04:43:21;;;;;;;14.73;9.95;;;14.70;99.90;;;;;;5052846;28;20041;-71
2023/08/24 04:45:53;;;;;;;15.55;11.18;;;14.70;99.90;;;;;;5053117;28;20076;-71
2023/08/24 04:48:23;;;;;;;18.35;10.82;;;14.70;99.90;;;;;;5051690;28;20049;-72
2023/08/24 04:50:49;;;;;;;17.05;10.20;;;14.70;99.90;;;;;;5051851;28;20045;-71
2023/08/24 04:53:17;;;;;;;20.30;10.98;;;14.70;99.90;;;;;;5051814;28;20110;-71
2023/08/24 04:55:43;;;;;;;19.50;11.10;;;14.80;99.90;;;;;;5051756;28;20041;-71
2023/08/24 04:58:10;;;;;;;21.38;11.85;;;14.80;99.90;;;;;;5051674;28;20128;-72
2023/08/24 05:00:36;;;;;;;22.05;11.63;;;14.80;99.90;;;;;;5051563;28;20076;-71
2023/08/24 05:03:06;;;;;;;18.00;11.93;;;14.70;99.90;;;;;;5051546;28;20048;-72
2023/08/24 05:05:33;;;;;;;15.90;11.43;;;14.70;99.90;;;;;;5051604;28;20045;-71
2023/08/24 05:08:00;;;;;;;18.40;11.20;;;14.80;99.90;;;;;;5051710;28;20488;-71
2023/08/24 05:10:30;;;;;;;18.35;12.48;;;14.80;99.90;;;;;;5051474;28;20049;-71
2023/08/24 05:12:56;;;;;;;16.85;10.88;;;14.80;99.90;;;;;;5052940;28;20053;-71
2023/08/24 05:15:21;;;;;;;17.45;10.82;;;14.80;99.90;;;;;;5055282;28;20044;-71
2023/08/24 05:17:47;;;;;;;15.57;10.32;;;14.80;99.90;;;;;;5054912;28;20407;-71
2023/08/24 05:20:13;;;;;;;18.85;11.15;;;14.90;99.90;;;;;;5055222;28;20068;-71
2023/08/24 05:22:39;;;;;;;15.82;11.30;;;14.80;99.90;;;;;;5055061;28;20048;-71
2023/08/24 05:25:05;;;;;;;18.02;11.05;;;14.90;99.90;;;;;;5054541;28;20049;-71
2023/08/24 05:27:31;;;;;;;15.93;11.00;;;15.00;99.90;;;;;;5056274;28;20073;-71
2023/08/24 05:29:57;;;;;;;16.02;10.98;;;15.00;99.90;;;;;;5054693;28;20122;-71
2023/08/24 05:32:23;;;;;;;17.75;11.15;;;15.10;99.90;;;;;;5056094;28;20037;-71
2023/08/24 05:34:49;;;;;;;15.88;10.40;;;15.10;99.90;;;;;;5054817;28;20052;-71
2023/08/24 05:37:14;;;;;;;17.35;10.48;;;15.10;99.90;;;;;;5054553;28;20499;-71
2023/08/24 05:39:40;;;;;;;15.13;10.65;;;15.20;99.90;;;;;;5056170;28;20063;-72
2023/08/24 05:42:06;;;;;;;17.92;11.15;;;15.30;99.90;;;;;;5055662;28;20084;-71
2023/08/24 05:44:31;;;;;;;17.73;10.40;;;15.40;99.90;;;;;;5054720;28;20099;-71
2023/08/24 05:46:57;;;;;;;20.45;11.15;;;15.50;99.90;;;;;;5054690;28;20053;-71
2023/08/24 05:49:23;;;;;;;15.23;10.68;;;15.60;99.90;;;;;;5055438;28;20048;-71
2023/08/24 05:51:52;;;;;;;16.35;10.02;;;15.70;99.90;;;;;;5055490;28;20044;-71
2023/08/24 05:54:21;;;;;;;13.70;9.55;;;15.70;99.90;;;;;;5055432;28;20049;-71
2023/08/24 05:56:47;;;;;;;13.63;8.90;;;15.70;99.90;;;;;;5054098;28;20052;-71
2023/08/24 05:59:13;;;;;;;14.70;9.02;;;15.80;99.90;;;;;;5054141;28;20049;-71
2023/08/24 06:01:39;;;;;;;14.20;10.05;;;15.80;99.90;;;;;;5055405;28;20041;-71
2023/08/24 06:04:08;;;;;;;15.40;9.27;;;15.90;99.90;;;;;;5055573;28;20048;-71
2023/08/24 06:06:37;;;;;;;16.63;8.48;;;16.00;99.90;;;;;;5055198;28;20388;-72
2023/08/24 06:09:06;;;;;;;14.60;8.90;;;16.00;99.90;;;;;;5054264;28;20568;-71
2023/08/24 06:11:35;;;;;;;13.55;8.70;;;16.10;99.90;;;;;;5054292;28;20091;-71
2023/08/24 06:14:01;;;;;;;15.85;10.52;;;16.20;99.90;;;;;;5054101;28;20036;-71
2023/08/24 06:16:28;;;;;;;13.15;9.38;;;16.30;99.90;;;;;;5053834;28;20547;-70
2023/08/24 06:18:53;;;;;;;17.15;8.93;;;16.30;99.90;;;;;;5053702;28;20128;-70
2023/08/24 06:21:19;;;;;;;15.35;9.50;;;16.40;99.90;;;;;;5053736;28;20120;-70
2023/08/24 06:23:47;;;;;;;17.77;10.15;;;16.50;99.90;;;;;;5054654;28;20102;-72
2023/08/24 06:26:15;;;;;;;12.82;9.00;;;16.60;99.90;;;;;;5066340;28;20449;-71
2023/08/24 06:28:41;;;;;;;13.60;9.10;;;16.70;99.90;;;;;;5073692;28;20541;-70
2023/08/24 06:31:09;;;;;;;13.93;8.45;;;16.90;99.90;;;;;;5073860;28;20045;-70
2023/08/24 06:33:38;;;;;;;11.40;7.53;;;17.00;99.90;;;;;;5073247;28;20123;-70
2023/08/24 06:36:12;;;;;;;14.30;8.38;;;17.20;99.90;;;;;;5072681;28;20041;-70
2023/08/24 06:38:40;;;;;;;14.00;8.52;;;17.30;99.90;;;;;;5058934;28;20132;-70
2023/08/24 06:41:12;;;;;;;13.82;8.45;;;17.40;99.90;;;;;;5074538;28;20070;-71
2023/08/24 06:43:40;;;;;;;13.52;8.32;;;17.50;99.90;;;;;;5073661;28;20384;-71
2023/08/24 06:46:09;;;;;;;13.63;8.07;;;17.50;99.90;;;;;;5073770;28;20127;-70
2023/08/24 06:48:37;;;;;;;12.93;7.75;;;17.60;99.90;;;;;;5072288;28;20491;-71
2023/08/24 06:51:03;;;;;;;12.90;7.32;;;17.70;99.90;;;;;;5073212;28;20044;-70
2023/08/24 06:53:29;;;;;;;12.27;8.02;;;17.70;99.90;;;;;;5073678;28;20032;-70
2023/08/24 06:55:59;;;;;;;11.30;6.70;;;17.70;99.90;;;;;;5073540;28;20041;-71
2023/08/24 06:58:25;;;;;;;12.23;7.30;;;17.70;99.90;;;;;;5072400;28;20547;-70
2023/08/24 07:00:50;;;;;;;9.95;7.38;;;17.70;99.90;;;;;;5073961;28;20128;-70
2023/08/24 07:03:19;;;;;;;12.48;8.02;;;17.80;99.90;;;;;;5072303;28;20060;-71
2023/08/24 07:05:46;;;;;;;10.38;7.78;;;17.90;99.90;;;;;;5071980;28;20048;-70
2023/08/24 07:08:13;;;;;;;12.75;7.75;;;18.00;99.90;;;;;;5072049;28;20495;-71
2023/08/24 07:10:39;;;;;;;9.27;6.70;;;18.20;99.90;;;;;;5072855;28;20044;-70
2023/08/24 07:13:07;;;;;;;12.63;6.60;;;18.30;99.90;;;;;;5073081;28;20070;-71
2023/08/24 07:15:34;;;;;;;11.70;6.60;;;18.40;99.90;;;;;;5069215;28;20200;-71
2023/08/24 07:18:01;;;;;;;12.38;7.07;;;18.60;99.90;;;;;;5072368;28;20479;-70
2023/08/24 07:20:27;;;;;;;11.68;5.90;;;18.70;99.90;;;;;;5072693;28;20036;-71
2023/08/24 07:22:53;;;;;;;10.68;6.38;;;18.80;99.90;;;;;;5071299;28;20506;-71
2023/08/24 07:25:21;;;;;;;9.98;5.20;;;18.90;99.90;;;;;;5071237;28;20173;-71
2023/08/24 07:27:47;;;;;;;10.95;6.30;;;19.10;99.90;;;;;;5072142;28;20049;-70
2023/08/24 07:30:13;;;;;;;10.80;5.00;;;19.30;99.90;;;;;;5072583;28;20040;-70
2023/08/24 07:32:39;;;;;;;8.40;4.85;;;19.40;99.90;;;;;;5073406;28;20568;-70
2023/08/24 07:35:06;;;;;;;10.35;4.95;;;19.40;99.90;;;;;;5072411;28;20068;-70
2023/08/24 07:37:32;;;;;;;7.97;4.82;;;19.50;99.90;;;;;;5072928;28;20044;-70
2023/08/24 07:39:57;;;;;;;10.55;5.25;;;19.70;99.90;;;;;;5072223;28;20048;-70
2023/08/24 07:42:23;;;;;;;8.52;4.82;;;19.70;99.90;;;;;;5072436;28;20048;-71
2023/08/24 07:44:49;;;;;;;7.15;5.03;;;19.80;99.90;;;;;;5073258;28;20373;-71
2023/08/24 07:47:15;;;;;;;9.63;5.63;;;19.90;99.90;;;;;;5072044;28;20430;-71
2023/08/24 07:49:44;;;;;;;8.77;5.13;;;20.00;99.90;;;;;;5070580;28;20106;-71
2023/08/24 07:52:12;;;;;;;7.70;5.18;;;20.00;99.90;;;;;;5072084;28;20064;-71
2023/08/24 07:54:38;;;;;;;10.90;5.43;;;20.00;99.90;;;;;;5071832;28;20461;-71
2023/08/24 07:57:04;;;;;;;8.52;5.50;;;20.20;99.90;;;;;;5073171;28;20540;-73
2023/08/24 07:59:30;;;;;;;9.50;5.32;;;20.20;99.90;;;;;;5072136;28;20442;-71
2023/08/24 08:01:55;;;;;;;10.82;5.60;;;20.30;99.90;;;;;;5071703;28;20052;-71
2023/08/24 08:04:21;;;;;;;8.70;5.30;;;20.40;99.90;;;;;;5071846;28;20150;-72
2023/08/24 08:06:47;;;;;;;9.65;5.75;;;20.30;99.90;;;;;;5073267;28;20048;-72
2023/08/24 08:09:13;;;;;;;8.80;5.57;;;20.30;99.90;;;;;;5072007;28;20045;-71
2023/08/24 08:11:38;;;;;;;8.13;5.03;;;20.40;99.90;;;;;;5073256;28;20052;-73
2023/08/24 08:14:04;;;;;;;7.75;4.95;;;20.40;99.90;;;;;;5071930;28;20040;-71
2023/08/24 08:16:30;;;;;;;7.47;5.18;;;20.40;99.90;;;;;;5069153;28;20404;-71
2023/08/24 08:19:02;;;;;;;10.20;4.32;;;20.40;99.90;;;;;;5068237;28;20472;-71
2023/08/24 08:21:28;;;;;;;8.77;5.28;;;20.60;99.90;;;;;;5051756;28;20056;-70
2023/08/24 08:23:53;;;;;;;7.88;4.90;;;20.60;99.90;;;;;;5062080;28;20040;-71
2023/08/24 08:26:19;;;;;;;9.45;5.25;;;20.70;99.90;;;;;;5065670;28;20040;-70
2023/08/24 08:28:47;;;;;;;10.43;5.35;;;20.80;99.90;;;;;;5053916;28;20399;-72
2023/08/24 08:31:13;;;;;;;8.20;4.97;;;21.00;99.90;;;;;;5065848;28;20037;-71
2023/08/24 08:33:39;;;;;;;10.00;4.82;;;21.00;99.90;;;;;;5070576;28;20051;-71
2023/08/24 08:36:04;;;;;;;7.05;5.30;;;21.10;99.90;;;;;;5070702;28;20589;-71
2023/08/24 08:38:30;;;;;;;13.48;7.10;;;21.30;99.90;;;;;;5072709;28;20049;-71
2023/08/24 08:41:08;;;;;;;7.97;5.20;;;21.30;99.90;;;;;;5072742;28;20384;-70
2023/08/24 08:43:34;;;;;;;10.70;5.15;;;21.40;99.90;;;;;;5071758;28;20060;-71
2023/08/24 08:46:00;;;;;;;10.43;6.43;;;21.40;99.90;;;;;;5072941;28;20110;-70
2023/08/24 08:48:27;;;;;;;10.23;6.00;;;21.50;99.90;;;;;;5073598;28;20103;-71
2023/08/24 08:50:56;;;;;;;8.73;5.65;;;21.50;99.90;;;;;;5056650;28;20048;-70
2023/08/24 08:53:23;;;;;;;9.85;6.65;;;21.70;99.90;;;;;;5055511;28;20063;-70
2023/08/24 08:55:54;;;;;;;13.32;6.78;;;21.80;99.90;;;;;;5054137;28;20124;-71
2023/08/24 08:58:21;;;;;;;7.93;5.35;;;21.90;99.90;;;;;;5055239;28;20057;-70
2023/08/24 09:00:48;;;;;;;10.63;6.40;;;21.90;99.90;;;;;;5054946;28;20049;-70
2023/08/24 09:03:18;;;;;;;7.63;4.93;;;21.90;99.90;;;;;;5071938;28;20040;-71
2023/08/24 09:05:47;;;;;;;10.73;6.45;;;22.10;99.90;;;;;;5071707;28;20091;-70
2023/08/24 09:08:15;;;;;;;12.60;6.40;;;22.00;99.90;;;;;;5056386;28;20048;-70
2023/08/24 09:10:41;;;;;;;11.85;7.15;;;22.10;99.90;;;;;;5071408;28;20480;-70
2023/08/24 09:13:12;;;;;;;10.32;6.00;;;22.10;99.90;;;;;;5055050;28;20064;-70
2023/08/24 09:15:38;;;;;;;9.20;6.15;;;22.10;99.90;;;;;;5054988;28;20509;-72
2023/08/24 09:18:04;;;;;;;8.63;6.38;;;22.10;99.90;;;;;;5054707;28;20053;-71
2023/08/24 09:20:30;;;;;;;11.50;6.00;;;22.20;99.90;;;;;;5054960;28;20539;-71
2023/08/24 09:22:57;;;;;;;12.35;6.20;;;22.20;99.90;;;;;;5057387;28;20087;-71
2023/08/24 09:25:26;;;;;;;11.20;6.13;;;22.10;99.90;;;;;;5074711;28;20045;-71
2023/08/24 09:28:07;;;;;;;14.02;6.28;;;22.10;99.90;;;;;;5074545;28;20124;-71
2023/08/24 09:30:35;;;;;;;10.15;5.72;;;22.10;99.90;;;;;;5074481;28;20139;-71
2023/08/24 09:33:09;;;;;;;13.95;6.50;;;22.00;99.90;;;;;;5074670;28;20074;-71
2023/08/24 09:35:36;;;;;;;13.40;7.10;;;22.00;99.90;;;;;;5074655;28;20044;-71
2023/08/24 09:38:17;;;;;;;15.32;6.68;;;21.90;99.90;;;;;;5074262;28;20422;-71
2023/08/24 09:40:48;;;;;;;10.38;6.22;;;21.90;99.90;;;;;;5074582;28;20037;-70
2023/08/24 09:43:14;;;;;;;10.63;6.22;;;21.70;99.90;;;;;;5075482;28;20411;-71
2023/08/24 09:45:55;;;;;;;14.38;5.63;;;21.70;99.90;;;;;;5074229;28;20514;-71
2023/08/24 09:48:24;;;;;;;10.82;5.60;;;21.70;99.90;;;;;;5073774;28;20079;-71
2023/08/24 09:50:51;;;;;;;10.57;5.05;;;21.50;99.90;;;;;;5074220;28;20127;-71
2023/08/24 09:53:22;;;;;;;8.85;4.95;;;21.50;99.90;;;;;;5075603;28;20101;-70
2023/08/24 09:56:00;;;;;;;12.15;5.70;;;21.50;99.90;;;;;;5074365;28;20048;-70
2023/08/24 09:58:26;;;;;;;11.50;6.13;;;21.50;99.90;;;;;;5073565;28;20072;-71
2023/08/24 10:00:52;;;;;;;11.10;6.32;;;21.40;99.90;;;;;;5075166;28;20051;-70
2023/08/24 10:03:20;;;;;;;13.80;7.10;;;21.40;99.90;;;;;;5073780;28;20094;-71
2023/08/24 10:05:53;;;;;;;10.18;6.97;;;21.40;99.90;;;;;;5071549;28;20047;-72
2023/08/24 10:08:32;;;;;;;10.48;6.72;;;21.30;99.90;;;;;;5067243;28;20040;-73
2023/08/24 10:11:00;;;;;;;11.20;6.38;;;21.10;99.90;;;;;;5059039;28;20480;-73
2023/08/24 10:14:19;;;;;;;10.98;6.03;;;21.10;99.90;;;;;;5065804;28;20052;-73
2023/08/24 10:16:47;;;;;;;10.77;5.63;;;21.10;99.90;;;;;;5018678;28;20140;-73
2023/08/24 10:19:13;;;;;;;11.38;5.53;;;21.10;99.90;;;;;;5011246;28;20084;-73
2023/08/24 10:21:40;;;;;;;11.63;5.93;;;21.00;99.90;;;;;;5037493;28;20056;-73
2023/08/24 10:24:08;;;;;;;9.70;6.10;;;21.00;99.90;;;;;;5068062;28;20427;-73
2023/08/24 10:26:34;;;;;;;9.70;5.80;;;20.90;99.90;;;;;;5066469;28;20518;-73
2023/08/24 10:29:00;;;;;;;11.82;5.35;;;20.90;99.90;;;;;;5068433;28;20048;-72
2023/08/24 10:31:27;;;;;;;10.23;6.25;;;20.90;99.90;;;;;;5068109;28;20075;-72
2023/08/24 10:33:54;;;;;;;10.88;6.35;;;20.80;99.90;;;;;;5068989;28;20078;-72
2023/08/24 10:36:22;;;;;;;12.10;6.13;;;20.70;99.90;;;;;;5059728;28;20165;-71
2023/08/24 10:38:47;;;;;;;12.27;6.95;;;20.80;99.90;;;;;;5068238;28;20048;-71
2023/08/24 10:41:13;;;;;;;10.43;5.53;;;20.70;99.90;;;;;;5068783;28;20037;-71
2023/08/24 10:43:41;;;;;;;15.10;6.88;;;20.70;99.90;;;;;;5069338;28;20544;-71
2023/08/24 10:46:16;;;;;;;10.35;7.68;;;20.60;99.90;;;;;;5059503;28;20151;-71
2023/08/24 10:48:44;;;;;;;13.52;8.07;;;20.60;99.90;;;;;;5052094;28;20056;-71
2023/08/24 10:51:22;;;;;;;13.02;7.88;;;20.60;99.90;;;;;;5058767;28;20084;-72
2023/08/24 10:53:58;;;;;;;15.27;8.75;;;20.60;99.90;;;;;;5068553;28;20044;-71
2023/08/24 10:56:39;;;;;;;14.77;8.43;;;20.60;99.90;;;;;;5057758;28;20091;-72
2023/08/24 10:59:17;;;;;;;11.02;8.43;;;20.60;99.90;;;;;;5052787;28;20128;-70
2023/08/24 11:01:56;;;;;;;14.45;9.48;;;20.50;99.90;;;;;;5052982;28;20446;-69
2023/08/24 11:04:21;;;;;;;15.18;9.45;;;20.50;99.90;;;;;;5052828;28;20136;-69
2023/08/24 11:06:58;;;;;;;16.13;9.02;;;20.50;99.90;;;;;;5052716;28;20179;-69
2023/08/24 11:09:44;;;;;;;13.70;9.50;;;20.40;99.90;;;;;;5053006;28;20497;-70
2023/08/24 11:12:09;;;;;;;14.90;9.35;;;20.40;99.90;;;;;;5061539;28;20051;-69
2023/08/24 11:14:54;;;;;;;13.73;9.10;;;20.30;99.90;;;;;;5069687;28;20048;-70
2023/08/24 11:17:21;;;;;;;16.42;9.48;;;20.30;99.90;;;;;;5069542;28;20059;-70
2023/08/24 11:19:54;;;;;;;12.73;9.25;;;20.30;99.90;;;;;;5072535;28;20065;-70
2023/08/24 11:22:21;;;;;;;19.05;10.73;;;20.30;99.90;;;;;;5072862;28;20499;-70
2023/08/24 11:24:47;;;;;;;14.45;10.13;;;20.20;99.90;;;;;;5073622;28;20395;-70
2023/08/24 11:27:12;;;;;;;14.20;10.70;;;20.20;99.90;;;;;;5070653;28;20044;-70
2023/08/24 11:29:40;;;;;;;13.18;10.32;;;20.20;99.90;;;;;;5071695;28;20048;-70
2023/08/24 11:32:06;;;;;;;14.55;10.95;;;20.10;99.90;;;;;;5071684;28;20036;-70
2023/08/24 11:34:33;;;;;;;17.10;12.20;;;20.10;99.90;;;;;;5071403;28;20094;-70
2023/08/24 11:36:59;;;;;;;16.27;11.68;;;20.00;99.90;;;;;;5073238;28;20102;-70
2023/08/24 11:39:25;;;;;;;16.67;11.98;;;20.10;99.90;;;;;;5071697;28;20045;-70
2023/08/24 11:41:59;;;;;;;16.48;12.13;;;20.10;99.90;;;;;;5072102;28;20041;-70
2023/08/24 11:44:29;;;;;;;16.95;12.40;;;20.10;99.90;;;;;;5071711;28;20083;-70
2023/08/24 11:46:58;;;;;;;20.00;13.80;;;20.10;99.90;;;;;;5058009;28;20049;-70
2023/08/24 11:49:27;;;;;;;19.70;13.70;;;20.10;99.90;;;;;;5072444;28;20488;-70
2023/08/24 11:52:02;;;;;;;20.38;14.57;;;20.10;99.90;;;;;;5071909;28;20145;-70
2023/08/24 11:54:27;;;;;;;19.85;14.50;;;20.10;99.90;;;;;;5071419;28;20402;-70
2023/08/24 11:56:53;;;;;;;17.23;13.40;;;20.10;99.90;;;;;;5072551;28;20040;-70
2023/08/24 11:59:20;;;;;;;19.20;14.00;;;20.10;99.90;;;;;;5071964;28;20051;-70
2023/08/24 12:01:47;;;;;;;19.33;14.23;;;20.10;99.90;;;;;;5072256;28;20048;-70
2023/08/24 12:04:12;;;;;;;18.75;14.25;;;20.20;99.90;;;;;;5073733;28;20112;-72
2023/08/24 12:06:39;;;;;;;20.45;15.25;;;20.10;99.90;;;;;;5072298;28;20738;-71
2023/08/24 12:09:06;;;;;;;17.85;14.45;;;20.10;99.90;;;;;;5072082;28;20044;-71
2023/08/24 12:11:36;;;;;;;19.23;14.95;;;20.10;99.90;;;;;;5073427;28;20487;-71
2023/08/24 12:14:06;;;;;;;22.08;15.05;;;20.20;99.90;;;;;;5072067;28;20045;-71
2023/08/24 12:16:33;;;;;;;18.42;13.88;;;20.10;99.90;;;;;;5073265;28;20474;-71
2023/08/24 12:19:07;;;;;;;17.35;14.43;;;20.20;99.90;;;;;;5073495;28;20037;-71
2023/08/24 12:21:44;;;;;;;16.67;12.95;;;20.20;99.90;;;;;;5072293;28;20384;-71
2023/08/24 12:24:14;;;;;;;18.40;13.68;;;20.10;99.90;;;;;;5076987;28;20047;-72
2023/08/24 12:26:39;;;;;;;17.50;14.75;;;20.10;99.90;;;;;;5076267;28;20041;-71
2023/08/24 12:29:08;;;;;;;17.80;13.35;;;20.20;99.90;;;;;;5075917;28;20430;-71
2023/08/24 12:31:34;;;;;;;20.27;13.80;;;20.20;99.90;;;;;;5077148;28;20547;-71
2023/08/24 12:34:08;;;;;;;19.65;14.57;;;20.20;99.90;;;;;;5075911;28;20040;-71
2023/08/24 12:36:36;;;;;;;20.27;13.80;;;20.10;99.90;;;;;;5075942;28;20045;-72
2023/08/24 12:39:07;;;;;;;19.50;13.70;;;20.10;99.90;;;;;;5076065;28;20068;-71